Troy Municipal Airport
KTOI : now visible

Airfield :











YOU CAN JOIN US ON...

 
LOGIN :

Register | Disclaimer

   EN    FR    IT 

 









Legend :    VFR   Marginal VFR   IFR   Intensive IFR   Very Intensive IFR
Visi :
Ceiling :
>= 8 km
>= 3000ft
5 to 8 km
1000 to 3000 ft
1500m to 5 km
500 to 1000 ft
800 to 1500m
200 to 500 ft
< 800m
< 200 ft
Symbols :   Thunderstorms  Fog  Heavy snow  Heavy precipitations  Wind > 20 kt






- Airport Elevation : 398 ft


KTOI - Troy Municipal

CURRENT METAR :
  • 250653Z AUTO 19005KT 10SM OVC011 17/17 A2981 RMK AO2 SLP090 T01720167

EXPIRED METARs :
  • 250633Z AUTO 20007KT 10SM SCT008 OVC013 17/17 A2981 RMK AO2 T01720167
  • 250553Z AUTO 21005KT 10SM OVC007 17/17 A2980 RMK AO2 RAE49 SLP089 P0003 60062 T01720167 10172 20161 401830106 50002
  • 250536Z AUTO 17006KT 8SM -RA BKN007 OVC015 17/17 A2979 RMK AO2 P0003 T01720167
  • 250521Z AUTO 18006KT 8SM -RA OVC006 17/17 A2980 RMK AO2 P0002 T01720167
  • 250453Z AUTO 21007KT 10SM -RA OVC005 17/17 A2982 RMK AO2 RAB00E12B38 SLP095 P0001 T01720167

TAF KTOI
Valid from the 25 at 06:00 until the 26 at 06:00 UTC


250543Z 2506/2606 18006KT P6SM -SHRA BKN007 OVC015
FM250800 23005KT P6SM OVC005
FM251300 VRB03KT P6SM OVC011
FM251500 VRB04KT P6SM OVC023
FM251900 27005KT P6SM BKN090



MET'MAP, your aeronautical weather chart ! - Copyright ORBIFLY December 2007 - Disclaimer

ORBIFLY MET'MAP TEAM :

Programming & Development : Alexandra Zaïnal
Concept & original design : Baudouin d'Aumeries
Assistance for programming : Marc-Olivier Méhu
Technical & hardware support : Manuel Goepfert

Contact : metmap@orbifly.com




SOURCES & CREDITS :

   NOAA       Earth
Advisory